sensor_id;sensor_type;location;lat;lon;timestamp;P1;durP1;ratioP1;P2;durP2;ratioP2
12962;SDS011;6546;49.882;8.666;2023-01-19T00:01:57;9.33;;;6.23;;
12962;SDS011;6546;49.882;8.666;2023-01-19T00:04:23;9.63;;;6.63;;
12962;SDS011;6546;49.882;8.666;2023-01-19T00:06:50;11.37;;;6.80;;
12962;SDS011;6546;49.882;8.666;2023-01-19T00:09:18;11.90;;;6.37;;
12962;SDS011;6546;49.882;8.666;2023-01-19T00:11:46;9.43;;;6.27;;
12962;SDS011;6546;49.882;8.666;2023-01-19T00:14:12;11.43;;;7.47;;
12962;SDS011;6546;49.882;8.666;2023-01-19T00:16:39;12.43;;;6.43;;
12962;SDS011;6546;49.882;8.666;2023-01-19T00:19:05;10.10;;;6.73;;
12962;SDS011;6546;49.882;8.666;2023-01-19T00:21:32;12.53;;;7.23;;
12962;SDS011;6546;49.882;8.666;2023-01-19T00:23:59;10.97;;;7.73;;
12962;SDS011;6546;49.882;8.666;2023-01-19T00:26:26;9.73;;;6.67;;
12962;SDS011;6546;49.882;8.666;2023-01-19T00:28:53;10.47;;;7.13;;
12962;SDS011;6546;49.882;8.666;2023-01-19T00:31:20;9.20;;;6.40;;
12962;SDS011;6546;49.882;8.666;2023-01-19T00:33:46;11.20;;;6.70;;
12962;SDS011;6546;49.882;8.666;2023-01-19T00:36:15;10.90;;;7.20;;
12962;SDS011;6546;49.882;8.666;2023-01-19T00:38:42;13.80;;;7.50;;
12962;SDS011;6546;49.882;8.666;2023-01-19T00:41:08;10.83;;;6.70;;
12962;SDS011;6546;49.882;8.666;2023-01-19T00:43:36;11.47;;;7.30;;
12962;SDS011;6546;49.882;8.666;2023-01-19T00:46:02;12.07;;;7.60;;
12962;SDS011;6546;49.882;8.666;2023-01-19T00:48:28;11.20;;;7.43;;
12962;SDS011;6546;49.882;8.666;2023-01-19T00:50:57;10.50;;;7.57;;
12962;SDS011;6546;49.882;8.666;2023-01-19T00:53:25;10.87;;;7.73;;
12962;SDS011;6546;49.882;8.666;2023-01-19T00:55:53;10.67;;;7.30;;
12962;SDS011;6546;49.882;8.666;2023-01-19T00:58:20;11.03;;;6.93;;
12962;SDS011;6546;49.882;8.666;2023-01-19T01:00:49;13.87;;;7.80;;
12962;SDS011;6546;49.882;8.666;2023-01-19T01:03:17;11.57;;;7.10;;
12962;SDS011;6546;49.882;8.666;2023-01-19T01:05:44;9.67;;;7.10;;
12962;SDS011;6546;49.882;8.666;2023-01-19T01:08:10;10.80;;;7.47;;
12962;SDS011;6546;49.882;8.666;2023-01-19T01:10:37;11.13;;;7.53;;
12962;SDS011;6546;49.882;8.666;2023-01-19T01:13:04;9.97;;;7.80;;
12962;SDS011;6546;49.882;8.666;2023-01-19T01:15:31;11.73;;;7.67;;
12962;SDS011;6546;49.882;8.666;2023-01-19T01:18:00;11.03;;;7.37;;
12962;SDS011;6546;49.882;8.666;2023-01-19T01:20:26;12.07;;;7.77;;
12962;SDS011;6546;49.882;8.666;2023-01-19T01:22:54;10.87;;;7.93;;
12962;SDS011;6546;49.882;8.666;2023-01-19T01:25:22;13.37;;;8.20;;
12962;SDS011;6546;49.882;8.666;2023-01-19T01:27:50;14.70;;;8.53;;
12962;SDS011;6546;49.882;8.666;2023-01-19T01:30:20;10.57;;;7.80;;
12962;SDS011;6546;49.882;8.666;2023-01-19T01:32:46;11.10;;;7.83;;
12962;SDS011;6546;49.882;8.666;2023-01-19T01:35:15;11.37;;;7.50;;
12962;SDS011;6546;49.882;8.666;2023-01-19T01:37:42;12.63;;;7.77;;
12962;SDS011;6546;49.882;8.666;2023-01-19T01:40:09;11.43;;;7.80;;
12962;SDS011;6546;49.882;8.666;2023-01-19T01:42:38;12.23;;;7.60;;
12962;SDS011;6546;49.882;8.666;2023-01-19T01:45:06;10.70;;;7.63;;
12962;SDS011;6546;49.882;8.666;2023-01-19T01:47:50;13.97;;;8.40;;
12962;SDS011;6546;49.882;8.666;2023-01-19T01:50:21;11.27;;;7.70;;
12962;SDS011;6546;49.882;8.666;2023-01-19T01:52:50;10.97;;;8.07;;
12962;SDS011;6546;49.882;8.666;2023-01-19T01:55:20;10.47;;;7.47;;
12962;SDS011;6546;49.882;8.666;2023-01-19T01:57:49;11.13;;;8.10;;
12962;SDS011;6546;49.882;8.666;2023-01-19T02:00:21;10.00;;;7.63;;
12962;SDS011;6546;49.882;8.666;2023-01-19T02:02:47;13.03;;;8.40;;
12962;SDS011;6546;49.882;8.666;2023-01-19T02:05:18;12.70;;;8.60;;
12962;SDS011;6546;49.882;8.666;2023-01-19T02:07:51;10.87;;;7.80;;
12962;SDS011;6546;49.882;8.666;2023-01-19T02:10:38;11.57;;;8.17;;
12962;SDS011;6546;49.882;8.666;2023-01-19T02:13:24;15.43;;;8.50;;
12962;SDS011;6546;49.882;8.666;2023-01-19T02:15:52;13.73;;;8.70;;
12962;SDS011;6546;49.882;8.666;2023-01-19T02:18:21;12.43;;;8.60;;
12962;SDS011;6546;49.882;8.666;2023-01-19T02:20:52;11.90;;;8.47;;
12962;SDS011;6546;49.882;8.666;2023-01-19T02:23:42;10.83;;;8.20;;
12962;SDS011;6546;49.882;8.666;2023-01-19T02:26:11;13.20;;;9.00;;
12962;SDS011;6546;49.882;8.666;2023-01-19T02:28:41;12.27;;;8.97;;
12962;SDS011;6546;49.882;8.666;2023-01-19T02:31:10;11.67;;;8.60;;
12962;SDS011;6546;49.882;8.666;2023-01-19T02:33:39;12.63;;;8.60;;
12962;SDS011;6546;49.882;8.666;2023-01-19T02:36:06;11.73;;;8.83;;
12962;SDS011;6546;49.882;8.666;2023-01-19T02:38:35;11.97;;;8.77;;
12962;SDS011;6546;49.882;8.666;2023-01-19T02:41:07;14.43;;;8.70;;
12962;SDS011;6546;49.882;8.666;2023-01-19T02:43:36;12.33;;;9.20;;
12962;SDS011;6546;49.882;8.666;2023-01-19T02:46:04;12.77;;;9.70;;
12962;SDS011;6546;49.882;8.666;2023-01-19T02:48:31;12.57;;;9.37;;
12962;SDS011;6546;49.882;8.666;2023-01-19T02:50:58;14.33;;;8.97;;
12962;SDS011;6546;49.882;8.666;2023-01-19T02:53:41;11.27;;;9.20;;
12962;SDS011;6546;49.882;8.666;2023-01-19T02:56:25;12.40;;;9.50;;
12962;SDS011;6546;49.882;8.666;2023-01-19T02:59:03;10.43;;;8.20;;
12962;SDS011;6546;49.882;8.666;2023-01-19T03:01:37;11.70;;;9.03;;
12962;SDS011;6546;49.882;8.666;2023-01-19T03:04:20;13.27;;;9.80;;
12962;SDS011;6546;49.882;8.666;2023-01-19T03:06:54;12.30;;;9.53;;
12962;SDS011;6546;49.882;8.666;2023-01-19T03:09:28;14.17;;;10.17;;
12962;SDS011;6546;49.882;8.666;2023-01-19T03:12:02;12.73;;;9.80;;
12962;SDS011;6546;49.882;8.666;2023-01-19T03:14:36;16.00;;;9.87;;
12962;SDS011;6546;49.882;8.666;2023-01-19T03:17:08;14.00;;;9.87;;
12962;SDS011;6546;49.882;8.666;2023-01-19T03:19:38;11.10;;;9.53;;
12962;SDS011;6546;49.882;8.666;2023-01-19T03:22:08;14.70;;;10.00;;
12962;SDS011;6546;49.882;8.666;2023-01-19T03:24:39;13.87;;;9.87;;
12962;SDS011;6546;49.882;8.666;2023-01-19T03:27:10;13.03;;;9.77;;
12962;SDS011;6546;49.882;8.666;2023-01-19T03:29:40;15.27;;;10.27;;
12962;SDS011;6546;49.882;8.666;2023-01-19T03:32:11;14.67;;;9.97;;
12962;SDS011;6546;49.882;8.666;2023-01-19T03:34:41;15.17;;;10.43;;
12962;SDS011;6546;49.882;8.666;2023-01-19T03:37:09;18.80;;;11.20;;
12962;SDS011;6546;49.882;8.666;2023-01-19T03:39:39;17.33;;;10.30;;
12962;SDS011;6546;49.882;8.666;2023-01-19T03:42:07;13.40;;;10.70;;
12962;SDS011;6546;49.882;8.666;2023-01-19T03:44:39;17.23;;;11.17;;
12962;SDS011;6546;49.882;8.666;2023-01-19T03:47:10;14.77;;;10.83;;
12962;SDS011;6546;49.882;8.666;2023-01-19T03:49:38;14.87;;;10.63;;
12962;SDS011;6546;49.882;8.666;2023-01-19T03:52:08;14.67;;;10.07;;
12962;SDS011;6546;49.882;8.666;2023-01-19T03:54:34;13.63;;;10.43;;
12962;SDS011;6546;49.882;8.666;2023-01-19T03:57:01;16.00;;;11.13;;
12962;SDS011;6546;49.882;8.666;2023-01-19T03:59:29;15.30;;;10.97;;
12962;SDS011;6546;49.882;8.666;2023-01-19T04:01:56;16.47;;;11.37;;
12962;SDS011;6546;49.882;8.666;2023-01-19T04:04:22;15.77;;;11.30;;
12962;SDS011;6546;49.882;8.666;2023-01-19T04:06:49;18.63;;;11.43;;
12962;SDS011;6546;49.882;8.666;2023-01-19T04:09:16;17.27;;;12.07;;
12962;SDS011;6546;49.882;8.666;2023-01-19T04:11:43;17.20;;;11.57;;
12962;SDS011;6546;49.882;8.666;2023-01-19T04:14:09;17.30;;;11.57;;
12962;SDS011;6546;49.882;8.666;2023-01-19T04:16:37;15.00;;;11.53;;
12962;SDS011;6546;49.882;8.666;2023-01-19T04:19:04;13.83;;;10.90;;
12962;SDS011;6546;49.882;8.666;2023-01-19T04:21:30;15.70;;;11.03;;
12962;SDS011;6546;49.882;8.666;2023-01-19T04:23:57;15.60;;;11.50;;
12962;SDS011;6546;49.882;8.666;2023-01-19T04:26:23;14.70;;;11.47;;
12962;SDS011;6546;49.882;8.666;2023-01-19T04:28:50;16.77;;;11.17;;
12962;SDS011;6546;49.882;8.666;2023-01-19T04:31:16;17.97;;;12.17;;
12962;SDS011;6546;49.882;8.666;2023-01-19T04:33:45;18.77;;;12.50;;
12962;SDS011;6546;49.882;8.666;2023-01-19T04:36:12;16.73;;;11.47;;
12962;SDS011;6546;49.882;8.666;2023-01-19T04:38:38;17.10;;;12.23;;
12962;SDS011;6546;49.882;8.666;2023-01-19T04:41:05;16.50;;;11.67;;
12962;SDS011;6546;49.882;8.666;2023-01-19T04:43:31;15.70;;;11.40;;
12962;SDS011;6546;49.882;8.666;2023-01-19T04:45:58;18.07;;;12.37;;
12962;SDS011;6546;49.882;8.666;2023-01-19T04:48:25;18.07;;;12.40;;
12962;SDS011;6546;49.882;8.666;2023-01-19T04:50:52;17.10;;;11.57;;
12962;SDS011;6546;49.882;8.666;2023-01-19T04:53:19;16.07;;;11.63;;
12962;SDS011;6546;49.882;8.666;2023-01-19T04:55:46;16.07;;;12.53;;
12962;SDS011;6546;49.882;8.666;2023-01-19T04:58:12;19.93;;;12.63;;
12962;SDS011;6546;49.882;8.666;2023-01-19T05:00:39;15.70;;;12.03;;
12962;SDS011;6546;49.882;8.666;2023-01-19T05:03:06;16.40;;;11.23;;
12962;SDS011;6546;49.882;8.666;2023-01-19T05:05:33;14.30;;;11.33;;
12962;SDS011;6546;49.882;8.666;2023-01-19T05:08:01;16.67;;;12.13;;
12962;SDS011;6546;49.882;8.666;2023-01-19T05:10:27;16.63;;;11.57;;
12962;SDS011;6546;49.882;8.666;2023-01-19T05:12:54;19.73;;;12.63;;
12962;SDS011;6546;49.882;8.666;2023-01-19T05:15:21;18.17;;;11.63;;
12962;SDS011;6546;49.882;8.666;2023-01-19T05:17:47;17.73;;;12.63;;
12962;SDS011;6546;49.882;8.666;2023-01-19T05:20:14;15.73;;;11.20;;
12962;SDS011;6546;49.882;8.666;2023-01-19T05:22:41;16.77;;;11.10;;
12962;SDS011;6546;49.882;8.666;2023-01-19T05:25:09;13.70;;;11.07;;
12962;SDS011;6546;49.882;8.666;2023-01-19T05:27:36;16.13;;;12.13;;
12962;SDS011;6546;49.882;8.666;2023-01-19T05:30:03;16.00;;;11.90;;
12962;SDS011;6546;49.882;8.666;2023-01-19T05:32:30;15.43;;;11.33;;
12962;SDS011;6546;49.882;8.666;2023-01-19T05:34:57;15.30;;;11.90;;
12962;SDS011;6546;49.882;8.666;2023-01-19T05:37:23;16.77;;;11.37;;
12962;SDS011;6546;49.882;8.666;2023-01-19T05:39:50;14.73;;;11.83;;
12962;SDS011;6546;49.882;8.666;2023-01-19T05:42:18;17.20;;;11.17;;
12962;SDS011;6546;49.882;8.666;2023-01-19T05:44:45;16.33;;;11.20;;
12962;SDS011;6546;49.882;8.666;2023-01-19T05:47:11;15.97;;;11.63;;
12962;SDS011;6546;49.882;8.666;2023-01-19T05:49:38;16.80;;;11.13;;
12962;SDS011;6546;49.882;8.666;2023-01-19T05:52:04;21.17;;;11.70;;
12962;SDS011;6546;49.882;8.666;2023-01-19T05:54:31;14.47;;;11.00;;
12962;SDS011;6546;49.882;8.666;2023-01-19T05:56:58;15.57;;;11.93;;
12962;SDS011;6546;49.882;8.666;2023-01-19T05:59:25;15.93;;;11.03;;
12962;SDS011;6546;49.882;8.666;2023-01-19T06:01:52;16.03;;;10.83;;
12962;SDS011;6546;49.882;8.666;2023-01-19T06:04:19;15.73;;;11.47;;
12962;SDS011;6546;49.882;8.666;2023-01-19T06:06:46;15.67;;;11.63;;
12962;SDS011;6546;49.882;8.666;2023-01-19T06:09:13;14.50;;;11.60;;
12962;SDS011;6546;49.882;8.666;2023-01-19T06:11:41;17.53;;;12.63;;
12962;SDS011;6546;49.882;8.666;2023-01-19T06:14:08;18.23;;;11.03;;
12962;SDS011;6546;49.882;8.666;2023-01-19T06:16:37;16.63;;;11.67;;
12962;SDS011;6546;49.882;8.666;2023-01-19T06:19:04;16.37;;;11.30;;
12962;SDS011;6546;49.882;8.666;2023-01-19T06:21:31;16.13;;;11.63;;
12962;SDS011;6546;49.882;8.666;2023-01-19T06:23:58;14.40;;;10.53;;
12962;SDS011;6546;49.882;8.666;2023-01-19T06:26:25;14.70;;;10.53;;
12962;SDS011;6546;49.882;8.666;2023-01-19T06:28:51;16.73;;;11.30;;
12962;SDS011;6546;49.882;8.666;2023-01-19T06:31:18;14.97;;;11.50;;
12962;SDS011;6546;49.882;8.666;2023-01-19T06:33:46;16.80;;;11.70;;
12962;SDS011;6546;49.882;8.666;2023-01-19T06:36:13;16.27;;;11.63;;
12962;SDS011;6546;49.882;8.666;2023-01-19T06:38:39;16.27;;;11.27;;
12962;SDS011;6546;49.882;8.666;2023-01-19T06:41:06;14.20;;;10.90;;
12962;SDS011;6546;49.882;8.666;2023-01-19T06:43:33;13.63;;;11.27;;
12962;SDS011;6546;49.882;8.666;2023-01-19T06:45:59;17.30;;;11.23;;
12962;SDS011;6546;49.882;8.666;2023-01-19T06:48:26;13.33;;;10.30;;
12962;SDS011;6546;49.882;8.666;2023-01-19T06:50:54;16.13;;;10.60;;
12962;SDS011;6546;49.882;8.666;2023-01-19T06:53:20;14.20;;;10.90;;
12962;SDS011;6546;49.882;8.666;2023-01-19T06:55:47;15.17;;;11.03;;
12962;SDS011;6546;49.882;8.666;2023-01-19T06:58:14;13.37;;;10.73;;
12962;SDS011;6546;49.882;8.666;2023-01-19T07:00:40;17.63;;;10.93;;
12962;SDS011;6546;49.882;8.666;2023-01-19T07:03:07;14.40;;;11.53;;
12962;SDS011;6546;49.882;8.666;2023-01-19T07:05:34;13.67;;;10.47;;
12962;SDS011;6546;49.882;8.666;2023-01-19T07:08:02;15.17;;;11.60;;
12962;SDS011;6546;49.882;8.666;2023-01-19T07:10:29;15.83;;;12.30;;
12962;SDS011;6546;49.882;8.666;2023-01-19T07:12:56;19.77;;;12.87;;
12962;SDS011;6546;49.882;8.666;2023-01-19T07:15:23;15.43;;;11.30;;
12962;SDS011;6546;49.882;8.666;2023-01-19T07:17:49;18.33;;;12.73;;
12962;SDS011;6546;49.882;8.666;2023-01-19T07:20:16;17.27;;;13.03;;
12962;SDS011;6546;49.882;8.666;2023-01-19T07:22:43;18.00;;;11.90;;
12962;SDS011;6546;49.882;8.666;2023-01-19T07:25:12;16.07;;;12.47;;
12962;SDS011;6546;49.882;8.666;2023-01-19T07:27:39;17.13;;;12.23;;
12962;SDS011;6546;49.882;8.666;2023-01-19T07:30:06;17.20;;;12.47;;
12962;SDS011;6546;49.882;8.666;2023-01-19T07:32:33;18.57;;;12.97;;
12962;SDS011;6546;49.882;8.666;2023-01-19T07:35:01;18.07;;;13.60;;
12962;SDS011;6546;49.882;8.666;2023-01-19T07:37:27;22.03;;;15.17;;
12962;SDS011;6546;49.882;8.666;2023-01-19T07:39:54;18.47;;;13.33;;
12962;SDS011;6546;49.882;8.666;2023-01-19T07:42:22;18.37;;;13.03;;
12962;SDS011;6546;49.882;8.666;2023-01-19T07:44:48;17.73;;;13.63;;
12962;SDS011;6546;49.882;8.666;2023-01-19T07:47:15;19.30;;;13.60;;
12962;SDS011;6546;49.882;8.666;2023-01-19T07:49:41;16.07;;;13.23;;
12962;SDS011;6546;49.882;8.666;2023-01-19T07:52:08;17.87;;;13.10;;
12962;SDS011;6546;49.882;8.666;2023-01-19T07:54:35;16.57;;;12.60;;
12962;SDS011;6546;49.882;8.666;2023-01-19T07:57:01;17.70;;;13.43;;
12962;SDS011;6546;49.882;8.666;2023-01-19T07:59:29;17.87;;;13.33;;
12962;SDS011;6546;49.882;8.666;2023-01-19T08:01:56;17.13;;;13.30;;
12962;SDS011;6546;49.882;8.666;2023-01-19T08:04:24;18.13;;;12.70;;
12962;SDS011;6546;49.882;8.666;2023-01-19T08:06:51;20.10;;;13.03;;
12962;SDS011;6546;49.882;8.666;2023-01-19T08:09:17;18.77;;;13.70;;
12962;SDS011;6546;49.882;8.666;2023-01-19T08:11:44;17.93;;;13.07;;
12962;SDS011;6546;49.882;8.666;2023-01-19T08:14:11;19.20;;;13.07;;
12962;SDS011;6546;49.882;8.666;2023-01-19T08:16:38;18.00;;;13.07;;
12962;SDS011;6546;49.882;8.666;2023-01-19T08:19:05;17.10;;;13.27;;
12962;SDS011;6546;49.882;8.666;2023-01-19T08:21:32;17.57;;;13.67;;
12962;SDS011;6546;49.882;8.666;2023-01-19T08:23:59;17.67;;;12.87;;
12962;SDS011;6546;49.882;8.666;2023-01-19T08:26:27;15.63;;;12.60;;
12962;SDS011;6546;49.882;8.666;2023-01-19T08:28:57;17.93;;;13.67;;
12962;SDS011;6546;49.882;8.666;2023-01-19T08:31:25;18.67;;;13.60;;
12962;SDS011;6546;49.882;8.666;2023-01-19T08:33:53;19.13;;;13.30;;
12962;SDS011;6546;49.882;8.666;2023-01-19T08:36:20;18.60;;;12.97;;
12962;SDS011;6546;49.882;8.666;2023-01-19T08:38:47;15.77;;;12.77;;
12962;SDS011;6546;49.882;8.666;2023-01-19T08:41:14;18.80;;;13.57;;
12962;SDS011;6546;49.882;8.666;2023-01-19T08:43:41;17.83;;;12.97;;
12962;SDS011;6546;49.882;8.666;2023-01-19T08:46:08;17.67;;;13.00;;
12962;SDS011;6546;49.882;8.666;2023-01-19T08:48:35;20.27;;;13.93;;
12962;SDS011;6546;49.882;8.666;2023-01-19T08:51:03;16.57;;;12.30;;
12962;SDS011;6546;49.882;8.666;2023-01-19T08:53:30;18.20;;;13.33;;
12962;SDS011;6546;49.882;8.666;2023-01-19T08:55:56;18.30;;;12.93;;
12962;SDS011;6546;49.882;8.666;2023-01-19T08:58:25;16.80;;;12.40;;
12962;SDS011;6546;49.882;8.666;2023-01-19T09:00:52;17.27;;;12.33;;
12962;SDS011;6546;49.882;8.666;2023-01-19T09:03:19;19.97;;;14.13;;
12962;SDS011;6546;49.882;8.666;2023-01-19T09:05:46;17.90;;;13.90;;
12962;SDS011;6546;49.882;8.666;2023-01-19T09:08:15;17.67;;;12.90;;
12962;SDS011;6546;49.882;8.666;2023-01-19T09:10:45;15.73;;;12.63;;
12962;SDS011;6546;49.882;8.666;2023-01-19T09:13:13;15.50;;;11.50;;
12962;SDS011;6546;49.882;8.666;2023-01-19T09:15:41;15.93;;;11.80;;
12962;SDS011;6546;49.882;8.666;2023-01-19T09:18:09;15.37;;;12.00;;
12962;SDS011;6546;49.882;8.666;2023-01-19T09:20:38;16.20;;;11.73;;
12962;SDS011;6546;49.882;8.666;2023-01-19T09:23:06;15.67;;;11.83;;
12962;SDS011;6546;49.882;8.666;2023-01-19T09:25:36;15.63;;;12.07;;
12962;SDS011;6546;49.882;8.666;2023-01-19T09:28:03;16.00;;;11.30;;
12962;SDS011;6546;49.882;8.666;2023-01-19T09:30:30;15.37;;;11.50;;
12962;SDS011;6546;49.882;8.666;2023-01-19T09:33:00;14.17;;;11.47;;
12962;SDS011;6546;49.882;8.666;2023-01-19T09:35:30;14.60;;;11.33;;
12962;SDS011;6546;49.882;8.666;2023-01-19T09:37:57;15.90;;;10.97;;
12962;SDS011;6546;49.882;8.666;2023-01-19T09:40:24;16.73;;;11.43;;
12962;SDS011;6546;49.882;8.666;2023-01-19T09:42:54;29.13;;;12.20;;
12962;SDS011;6546;49.882;8.666;2023-01-19T09:45:26;18.40;;;11.53;;
12962;SDS011;6546;49.882;8.666;2023-01-19T09:47:56;13.40;;;10.17;;
12962;SDS011;6546;49.882;8.666;2023-01-19T09:50:26;16.70;;;11.33;;
12962;SDS011;6546;49.882;8.666;2023-01-19T09:52:57;16.77;;;11.93;;
12962;SDS011;6546;49.882;8.666;2023-01-19T09:55:31;18.73;;;12.37;;
12962;SDS011;6546;49.882;8.666;2023-01-19T09:57:59;16.47;;;11.37;;
12962;SDS011;6546;49.882;8.666;2023-01-19T10:00:25;17.57;;;11.80;;
12962;SDS011;6546;49.882;8.666;2023-01-19T10:02:57;15.67;;;11.33;;
12962;SDS011;6546;49.882;8.666;2023-01-19T10:05:34;14.87;;;11.50;;
12962;SDS011;6546;49.882;8.666;2023-01-19T10:08:11;15.57;;;11.57;;
12962;SDS011;6546;49.882;8.666;2023-01-19T10:10:45;16.23;;;12.37;;
12962;SDS011;6546;49.882;8.666;2023-01-19T10:13:33;16.90;;;12.00;;
12962;SDS011;6546;49.882;8.666;2023-01-19T10:16:08;16.73;;;11.80;;
12962;SDS011;6546;49.882;8.666;2023-01-19T10:18:49;15.43;;;11.53;;
12962;SDS011;6546;49.882;8.666;2023-01-19T10:21:18;15.23;;;12.30;;
12962;SDS011;6546;49.882;8.666;2023-01-19T10:23:48;15.07;;;11.33;;
12962;SDS011;6546;49.882;8.666;2023-01-19T10:26:19;21.90;;;12.10;;
12962;SDS011;6546;49.882;8.666;2023-01-19T10:28:52;17.97;;;12.03;;
12962;SDS011;6546;49.882;8.666;2023-01-19T10:31:22;17.07;;;12.30;;
12962;SDS011;6546;49.882;8.666;2023-01-19T10:33:49;18.53;;;12.83;;
12962;SDS011;6546;49.882;8.666;2023-01-19T10:36:18;17.57;;;12.40;;
12962;SDS011;6546;49.882;8.666;2023-01-19T10:38:46;16.70;;;13.10;;
12962;SDS011;6546;49.882;8.666;2023-01-19T10:41:17;15.83;;;12.00;;
12962;SDS011;6546;49.882;8.666;2023-01-19T10:43:48;16.27;;;11.43;;
12962;SDS011;6546;49.882;8.666;2023-01-19T10:46:26;20.70;;;12.60;;
12962;SDS011;6546;49.882;8.666;2023-01-19T10:49:00;17.00;;;11.70;;
12962;SDS011;6546;49.882;8.666;2023-01-19T10:51:27;20.40;;;12.67;;
12962;SDS011;6546;49.882;8.666;2023-01-19T10:53:55;23.13;;;13.03;;
12962;SDS011;6546;49.882;8.666;2023-01-19T10:56:28;22.03;;;14.00;;
12962;SDS011;6546;49.882;8.666;2023-01-19T10:58:58;19.07;;;14.10;;
12962;SDS011;6546;49.882;8.666;2023-01-19T11:01:27;17.80;;;12.90;;
12962;SDS011;6546;49.882;8.666;2023-01-19T11:03:55;19.17;;;11.90;;
12962;SDS011;6546;49.882;8.666;2023-01-19T11:06:29;16.60;;;11.80;;
12962;SDS011;6546;49.882;8.666;2023-01-19T11:09:08;15.90;;;12.30;;
12962;SDS011;6546;49.882;8.666;2023-01-19T11:11:41;20.50;;;12.90;;
12962;SDS011;6546;49.882;8.666;2023-01-19T11:14:09;17.37;;;11.83;;
12962;SDS011;6546;49.882;8.666;2023-01-19T11:16:39;14.70;;;11.70;;
12962;SDS011;6546;49.882;8.666;2023-01-19T11:19:16;17.77;;;12.17;;
12962;SDS011;6546;49.882;8.666;2023-01-19T11:21:45;17.07;;;12.90;;
12962;SDS011;6546;49.882;8.666;2023-01-19T11:24:12;18.77;;;12.17;;
12962;SDS011;6546;49.882;8.666;2023-01-19T11:26:41;16.60;;;12.60;;
12962;SDS011;6546;49.882;8.666;2023-01-19T11:29:14;19.27;;;12.43;;
12962;SDS011;6546;49.882;8.666;2023-01-19T11:31:44;18.10;;;13.10;;
12962;SDS011;6546;49.882;8.666;2023-01-19T11:34:24;16.77;;;12.40;;
12962;SDS011;6546;49.882;8.666;2023-01-19T11:36:56;18.70;;;14.30;;
12962;SDS011;6546;49.882;8.666;2023-01-19T11:39:25;17.87;;;12.47;;
12962;SDS011;6546;49.882;8.666;2023-01-19T11:41:53;17.67;;;13.53;;
12962;SDS011;6546;49.882;8.666;2023-01-19T11:44:22;17.63;;;13.80;;
12962;SDS011;6546;49.882;8.666;2023-01-19T11:46:53;25.83;;;17.57;;
12962;SDS011;6546;49.882;8.666;2023-01-19T11:49:24;21.90;;;15.10;;
12962;SDS011;6546;49.882;8.666;2023-01-19T11:51:58;17.83;;;12.93;;
12962;SDS011;6546;49.882;8.666;2023-01-19T11:54:30;18.37;;;12.97;;
12962;SDS011;6546;49.882;8.666;2023-01-19T11:57:01;15.17;;;12.40;;
12962;SDS011;6546;49.882;8.666;2023-01-19T11:59:37;19.93;;;12.13;;
12962;SDS011;6546;49.882;8.666;2023-01-19T12:02:10;17.63;;;12.43;;
12962;SDS011;6546;49.882;8.666;2023-01-19T12:04:44;16.70;;;11.97;;
12962;SDS011;6546;49.882;8.666;2023-01-19T12:07:12;14.20;;;11.30;;
12962;SDS011;6546;49.882;8.666;2023-01-19T12:09:45;13.40;;;10.23;;
12962;SDS011;6546;49.882;8.666;2023-01-19T12:12:16;12.53;;;10.23;;
12962;SDS011;6546;49.882;8.666;2023-01-19T12:14:53;12.73;;;10.57;;
12962;SDS011;6546;49.882;8.666;2023-01-19T12:17:28;13.90;;;9.97;;
12962;SDS011;6546;49.882;8.666;2023-01-19T12:20:00;11.80;;;10.33;;
12962;SDS011;6546;49.882;8.666;2023-01-19T12:22:34;15.00;;;11.10;;
12962;SDS011;6546;49.882;8.666;2023-01-19T12:25:11;15.83;;;12.00;;
12962;SDS011;6546;49.882;8.666;2023-01-19T12:27:45;16.67;;;11.73;;
12962;SDS011;6546;49.882;8.666;2023-01-19T12:30:15;15.17;;;11.70;;
12962;SDS011;6546;49.882;8.666;2023-01-19T12:32:46;15.20;;;11.27;;
12962;SDS011;6546;49.882;8.666;2023-01-19T12:38:21;21.23;;;11.50;;
12962;SDS011;6546;49.882;8.666;2023-01-19T12:41:05;15.43;;;11.40;;
12962;SDS011;6546;49.882;8.666;2023-01-19T12:44:13;17.03;;;11.97;;
12962;SDS011;6546;49.882;8.666;2023-01-19T12:46:45;20.03;;;11.47;;
12962;SDS011;6546;49.882;8.666;2023-01-19T12:49:20;16.77;;;11.80;;
12962;SDS011;6546;49.882;8.666;2023-01-19T12:51:51;17.10;;;11.83;;
12962;SDS011;6546;49.882;8.666;2023-01-19T12:54:22;17.27;;;12.47;;
12962;SDS011;6546;49.882;8.666;2023-01-19T12:56:55;19.13;;;13.10;;
12962;SDS011;6546;49.882;8.666;2023-01-19T12:59:26;17.23;;;12.50;;
12962;SDS011;6546;49.882;8.666;2023-01-19T13:08:16;18.80;;;13.40;;
12962;SDS011;6546;49.882;8.666;2023-01-19T13:10:52;16.47;;;13.03;;
12962;SDS011;6546;49.882;8.666;2023-01-19T13:13:35;17.33;;;12.43;;
12962;SDS011;6546;49.882;8.666;2023-01-19T13:19:12;18.70;;;12.80;;
12962;SDS011;6546;49.882;8.666;2023-01-19T13:21:43;16.13;;;12.27;;
12962;SDS011;6546;49.882;8.666;2023-01-19T13:24:11;19.67;;;12.60;;
12962;SDS011;6546;49.882;8.666;2023-01-19T13:26:41;15.60;;;11.63;;
12962;SDS011;6546;49.882;8.666;2023-01-19T13:29:19;16.03;;;12.53;;
12962;SDS011;6546;49.882;8.666;2023-01-19T13:31:51;14.43;;;11.73;;
12962;SDS011;6546;49.882;8.666;2023-01-19T13:34:21;18.57;;;12.03;;
12962;SDS011;6546;49.882;8.666;2023-01-19T13:36:51;14.63;;;11.63;;
12962;SDS011;6546;49.882;8.666;2023-01-19T13:39:21;15.87;;;11.90;;
12962;SDS011;6546;49.882;8.666;2023-01-19T13:41:53;15.47;;;11.37;;
12962;SDS011;6546;49.882;8.666;2023-01-19T13:44:22;16.87;;;12.13;;
12962;SDS011;6546;49.882;8.666;2023-01-19T13:46:52;18.60;;;12.37;;
12962;SDS011;6546;49.882;8.666;2023-01-19T13:49:24;16.43;;;12.17;;
12962;SDS011;6546;49.882;8.666;2023-01-19T13:52:05;15.77;;;11.33;;
12962;SDS011;6546;49.882;8.666;2023-01-19T13:54:36;15.50;;;11.93;;
12962;SDS011;6546;49.882;8.666;2023-01-19T13:57:19;19.23;;;11.47;;
12962;SDS011;6546;49.882;8.666;2023-01-19T13:59:59;16.50;;;11.60;;
12962;SDS011;6546;49.882;8.666;2023-01-19T14:02:30;18.47;;;11.30;;
12962;SDS011;6546;49.882;8.666;2023-01-19T14:04:57;15.90;;;11.47;;
12962;SDS011;6546;49.882;8.666;2023-01-19T14:07:25;13.60;;;10.70;;
12962;SDS011;6546;49.882;8.666;2023-01-19T14:10:01;16.97;;;12.23;;
12962;SDS011;6546;49.882;8.666;2023-01-19T14:12:28;15.87;;;11.80;;
12962;SDS011;6546;49.882;8.666;2023-01-19T14:14:56;17.40;;;12.33;;
12962;SDS011;6546;49.882;8.666;2023-01-19T14:17:23;17.83;;;12.30;;
12962;SDS011;6546;49.882;8.666;2023-01-19T14:19:51;15.40;;;11.50;;
12962;SDS011;6546;49.882;8.666;2023-01-19T14:22:19;16.73;;;12.60;;
12962;SDS011;6546;49.882;8.666;2023-01-19T14:24:47;15.60;;;11.30;;
12962;SDS011;6546;49.882;8.666;2023-01-19T14:27:16;14.63;;;11.53;;
12962;SDS011;6546;49.882;8.666;2023-01-19T14:29:44;17.53;;;11.93;;
12962;SDS011;6546;49.882;8.666;2023-01-19T14:32:15;15.97;;;11.63;;
12962;SDS011;6546;49.882;8.666;2023-01-19T14:34:44;17.07;;;11.53;;
12962;SDS011;6546;49.882;8.666;2023-01-19T14:37:19;14.77;;;11.37;;
12962;SDS011;6546;49.882;8.666;2023-01-19T14:39:50;18.13;;;11.97;;
12962;SDS011;6546;49.882;8.666;2023-01-19T14:42:21;19.03;;;12.17;;
12962;SDS011;6546;49.882;8.666;2023-01-19T14:44:51;16.60;;;11.80;;
12962;SDS011;6546;49.882;8.666;2023-01-19T14:47:30;16.00;;;11.23;;
12962;SDS011;6546;49.882;8.666;2023-01-19T14:50:02;14.70;;;10.70;;
12962;SDS011;6546;49.882;8.666;2023-01-19T14:52:33;17.37;;;11.37;;
12962;SDS011;6546;49.882;8.666;2023-01-19T14:55:05;16.23;;;11.23;;
12962;SDS011;6546;49.882;8.666;2023-01-19T14:57:41;16.10;;;11.10;;
12962;SDS011;6546;49.882;8.666;2023-01-19T15:00:12;16.37;;;11.43;;
12962;SDS011;6546;49.882;8.666;2023-01-19T15:02:41;16.27;;;11.50;;
12962;SDS011;6546;49.882;8.666;2023-01-19T15:05:08;14.30;;;10.67;;